Date,TemperatureHighF,TemperatureAvgF,TemperatureLowF,DewpointHighF,DewpointAvgF,DewpointLowF,HumidityHigh,HumidityAvg,HumidityLow,PressureMaxIn,PressureMinIn,WindSpeedMaxMPH,WindSpeedAvgMPH,GustSpeedMaxMPH,PrecipitationSumIn
2013-9-1,104.2,90.6,79.3,74.5,71.0,65.9,78,55,34,29.92,29.92,13,3,13,0.00
2013-9-2,97.9,88.2,77.9,75.8,71.4,66.1,84,59,37,29.92,29.92,12,3,12,0.00
2013-9-3,103.5,86.7,75.6,74.6,71.0,68.4,86,62,34,29.92,29.92,14,2,14,0.00
2013-9-4,100.6,82.8,75.4,78.0,73.6,69.8,90,75,42,29.92,29.92,20,2,20,0.50
2013-9-5,99.1,86.3,74.3,76.6,72.9,66.8,95,68,37,29.92,29.92,16,2,16,0.00
2013-9-6,101.8,87.5,74.8,76.7,71.1,63.9,92,63,31,29.92,29.92,10,2,10,0.00
2013-9-7,101.1,85.7,73.6,77.0,71.9,65.8,91,66,35,29.92,29.92,22,2,22,0.00
2013-9-8,98.4,85.1,71.4,74.4,69.3,64.0,92,63,35,29.92,29.92,8,2,8,0.00
2013-9-9,98.8,85.1,72.0,74.6,68.0,61.6,89,60,31,29.92,29.92,12,2,12,0.00
2013-9-10,96.8,85.2,72.5,75.4,69.3,65.0,91,62,37,29.92,29.92,14,2,14,0.00
2013-9-11,98.1,85.2,74.7,74.3,70.2,67.9,85,63,41,29.92,29.92,11,1,11,0.00
2013-9-12,97.3,83.9,72.9,73.6,69.7,64.9,90,65,38,29.92,29.92,8,1,8,0.00
2013-9-13,100.2,84.0,71.8,71.3,68.4,65.1,85,62,33,29.92,29.92,11,2,11,0.00
2013-9-14,95.4,83.3,72.5,70.8,65.5,59.8,78,56,39,29.92,29.92,11,2,11,0.00
2013-9-15,98.2,84.5,70.7,69.9,64.3,58.3,66,52,34,29.92,29.92,8,2,8,0.00
2013-9-16,98.2,86.0,73.9,74.7,69.5,65.4,88,60,35,29.92,29.92,9,1,9,0.00
2013-9-17,84.7,84.4,83.5,69.2,68.6,68.0,61,59,58,29.92,29.92,2,0,2,0.00
2013-9-18,98.6,87.0,76.6,74.7,69.5,65.0,80,58,34,29.92,29.92,11,2,11,0.00
2013-9-19,95.9,84.5,75.7,75.4,72.8,69.2,88,70,45,29.92,29.92,18,2,18,0.00
2013-9-20,80.6,76.1,70.9,76.2,73.6,70.0,97,92,83,29.92,29.92,11,3,11,2.50
2013-9-21,83.5,74.2,68.2,70.2,65.2,55.8,97,75,54,29.92,29.92,16,4,16,0.02
2013-9-22,84.0,70.9,59.9,57.8,54.7,48.1,84,60,31,29.92,29.92,11,2,11,0.02
2013-9-23,88.2,74.8,60.8,68.9,60.9,55.3,84,64,44,29.92,29.92,8,1,8,0.00
2013-9-24,75.7,73.9,71.4,68.3,66.9,65.8,84,79,73,29.92,29.92,6,0,6,0.00
2013-9-25,92.7,80.4,62.6,64.1,58.2,50.5,89,51,25,29.92,29.92,13,1,13,0.01
2013-9-26,94.1,77.1,60.8,68.5,62.6,57.2,91,65,34,29.92,29.92,9,1,9,0.00
2013-9-27,92.1,78.9,65.1,73.5,66.9,62.8,94,69,43,29.92,29.92,13,2,13,0.00
2013-9-28,90.7,81.0,73.4,78.9,72.5,68.0,93,76,53,32.19,29.92,12,2,12,0.09
2013-9-29,81.7,77.3,73.6,76.9,74.8,72.6,98,92,83,29.92,29.92,11,1,11,1.67
2013-9-30,85.8,78.7,73.6,75.3,73.5,71.7,97,84,67,29.92,29.92,8,1,8,0.00